Time;durP1;ratioP1;P1;durP2;ratioP2;P2;SDS_P1;SDS_P2;PMS_P1;PMS_P2;Temp;Humidity;BMP_temperature;BMP_pressure;BME280_temperature;BME280_humidity;BME280_pressure;Samples;Min_cycle;Max_cycle;Signal;HPM_P1;HPM_P2
2020/12/23 00:02:13;;;;;;;6.35;4.20;;;9.60;99.90;;;;;;5096594;28;20227;-69
2020/12/23 00:04:40;;;;;;;4.55;4.15;;;9.50;99.90;;;;;;5079577;28;20300;-69
2020/12/23 00:07:07;;;;;;;6.95;4.50;;;9.50;99.90;;;;;;5089489;28;20215;-70
2020/12/23 00:09:34;;;;;;;4.18;3.78;;;9.50;99.90;;;;;;5079561;28;20226;-70
2020/12/23 00:12:02;;;;;;;4.68;4.22;;;9.60;99.90;;;;;;5090199;28;20231;-71
2020/12/23 00:14:29;;;;;;;5.45;4.70;;;9.50;99.90;;;;;;5081815;28;20239;-69
2020/12/23 00:16:56;;;;;;;5.28;4.50;;;9.40;99.90;;;;;;5096036;28;20205;-70
2020/12/23 00:19:22;;;;;;;6.40;3.85;;;9.20;99.90;;;;;;5085927;28;20209;-69
2020/12/23 00:21:49;;;;;;;9.77;4.85;;;9.10;99.90;;;;;;5084800;28;20200;-70
2020/12/23 00:24:15;;;;;;;6.10;4.80;;;9.10;99.90;;;;;;5085886;28;20208;-70
2020/12/23 00:26:45;;;;;;;8.02;5.63;;;9.20;99.90;;;;;;5085695;28;20574;-69
2020/12/23 00:29:12;;;;;;;5.65;4.03;;;9.30;99.90;;;;;;5084822;28;20214;-70
2020/12/23 00:31:39;;;;;;;12.63;4.80;;;9.30;99.90;;;;;;5079128;28;20562;-69
2020/12/23 00:34:06;;;;;;;8.45;4.15;;;9.40;99.90;;;;;;5079462;28;20243;-69
2020/12/23 00:36:33;;;;;;;5.65;3.80;;;9.40;99.90;;;;;;5081950;28;20295;-70
2020/12/23 00:39:00;;;;;;;7.57;5.57;;;9.40;99.90;;;;;;5093693;28;20400;-70
2020/12/23 00:41:27;;;;;;;5.68;5.15;;;9.40;99.90;;;;;;5082153;28;20497;-68
2020/12/23 00:43:53;;;;;;;8.55;4.63;;;9.40;99.90;;;;;;5080600;28;20217;-69
2020/12/23 00:46:20;;;;;;;5.60;5.07;;;9.40;99.90;;;;;;5079242;28;20280;-69
2020/12/23 00:48:46;;;;;;;6.45;5.65;;;9.40;99.90;;;;;;5096791;27;20209;-69
2020/12/23 00:51:14;;;;;;;6.30;4.45;;;9.40;99.90;;;;;;5081745;28;20533;-70
2020/12/23 00:53:42;;;;;;;5.10;4.60;;;9.40;99.90;;;;;;5079463;28;20552;-69
2020/12/23 00:56:10;;;;;;;5.75;5.00;;;9.40;99.90;;;;;;5099673;28;20276;-69
2020/12/23 00:58:36;;;;;;;5.07;4.03;;;9.40;99.90;;;;;;5083372;28;20205;-71
2020/12/23 01:01:03;;;;;;;5.80;4.85;;;9.40;99.90;;;;;;5082443;28;20273;-69
2020/12/23 01:03:43;;;;;;;10.68;5.88;;;9.40;99.90;;;;;;5079792;28;20194;-69
2020/12/23 01:06:11;;;;;;;7.40;4.55;;;9.30;99.90;;;;;;5081054;28;20206;-68
2020/12/23 01:08:38;;;;;;;4.95;4.18;;;9.30;99.90;;;;;;5080384;28;20986;-70
2020/12/23 01:11:05;;;;;;;5.20;4.57;;;9.20;99.90;;;;;;5078621;28;20228;-69
2020/12/23 01:13:33;;;;;;;4.20;3.80;;;9.20;99.90;;;;;;5081621;28;20265;-69
2020/12/23 01:16:00;;;;;;;5.28;4.47;;;9.20;99.90;;;;;;5079453;28;20211;-69
2020/12/23 01:18:27;;;;;;;3.45;2.63;;;9.20;99.90;;;;;;5083830;28;20347;-70
2020/12/23 01:20:53;;;;;;;3.85;3.55;;;9.20;99.90;;;;;;5096837;28;20204;-70
2020/12/23 01:23:20;;;;;;;5.95;4.05;;;9.20;99.90;;;;;;5083304;28;20204;-69
2020/12/23 01:25:51;;;;;;;4.60;4.05;;;9.20;99.90;;;;;;5080108;28;20231;-69
2020/12/23 01:28:18;;;;;;;6.60;4.10;;;9.20;99.90;;;;;;5079809;28;20201;-68
2020/12/23 01:30:45;;;;;;;6.40;4.55;;;9.20;99.90;;;;;;5085511;28;20202;-69
2020/12/23 01:33:11;;;;;;;5.65;4.25;;;9.10;99.90;;;;;;5086753;28;20587;-69
2020/12/23 01:35:38;;;;;;;5.25;4.75;;;9.10;99.90;;;;;;5085449;28;20233;-68
2020/12/23 01:38:05;;;;;;;5.13;4.18;;;9.10;99.90;;;;;;5088330;28;20416;-68
2020/12/23 01:40:32;;;;;;;5.72;3.80;;;9.40;99.90;;;;;;5092877;28;20274;-69
2020/12/23 01:42:59;;;;;;;5.68;4.10;;;9.10;99.90;;;;;;5086297;28;20217;-68
2020/12/23 01:45:26;;;;;;;8.77;4.45;;;9.10;99.90;;;;;;5103422;28;20201;-69
2020/12/23 01:47:56;;;;;;;6.57;4.22;;;9.10;99.90;;;;;;5086697;28;20217;-68
2020/12/23 01:50:23;;;;;;;6.05;4.65;;;9.10;99.90;;;;;;5081551;28;20205;-68
2020/12/23 01:52:52;;;;;;;6.55;3.88;;;9.10;99.90;;;;;;5090175;28;20233;-69
2020/12/23 01:55:19;;;;;;;6.80;3.90;;;9.00;99.90;;;;;;5086858;28;20517;-68
2020/12/23 01:57:46;;;;;;;4.88;3.95;;;9.00;99.90;;;;;;5084758;28;20227;-68
2020/12/23 02:00:12;;;;;;;6.63;4.15;;;9.00;99.90;;;;;;5085380;28;20204;-68
2020/12/23 02:02:42;;;;;;;5.95;3.85;;;9.00;99.90;;;;;;5088885;28;20221;-69
2020/12/23 02:05:10;;;;;;;6.75;4.93;;;9.00;99.90;;;;;;5081972;28;20200;-69
2020/12/23 02:07:37;;;;;;;5.88;4.20;;;9.00;99.90;;;;;;5085681;28;20205;-68
2020/12/23 02:10:06;;;;;;;5.10;3.80;;;9.00;99.90;;;;;;5081673;28;20209;-69
2020/12/23 02:12:34;;;;;;;6.35;3.20;;;9.10;99.90;;;;;;5087333;28;20291;-70
2020/12/23 02:15:09;;;;;;;4.07;3.70;;;9.10;99.90;;;;;;5084175;28;20212;-69
2020/12/23 02:17:36;;;;;;;4.45;3.15;;;9.10;99.90;;;;;;5083485;28;20209;-69
2020/12/23 02:20:08;;;;;;;4.97;3.13;;;9.00;99.90;;;;;;5090804;28;20263;-69
2020/12/23 02:22:35;;;;;;;6.72;4.38;;;9.10;99.90;;;;;;5084506;28;20208;-69
2020/12/23 02:25:03;;;;;;;5.75;3.40;;;9.10;99.90;;;;;;5086850;28;20208;-69
2020/12/23 02:27:30;;;;;;;5.22;4.60;;;9.10;99.90;;;;;;5083869;28;20613;-69
2020/12/23 02:29:58;;;;;;;3.67;3.20;;;9.00;99.90;;;;;;5084831;28;20225;-69
2020/12/23 02:32:25;;;;;;;4.45;4.05;;;9.10;99.90;;;;;;5082880;28;20233;-71
2020/12/23 02:34:53;;;;;;;3.83;2.95;;;9.10;99.90;;;;;;5085664;28;20423;-70
2020/12/23 02:37:20;;;;;;;4.20;3.35;;;9.00;99.90;;;;;;5085723;28;20205;-69
2020/12/23 02:39:49;;;;;;;5.60;4.00;;;9.00;99.90;;;;;;5084732;28;20211;-68
2020/12/23 02:42:17;;;;;;;5.15;4.10;;;9.10;99.90;;;;;;5083364;28;20217;-69
2020/12/23 02:44:45;;;;;;;7.07;5.45;;;9.10;99.90;;;;;;5089526;28;20242;-69
2020/12/23 02:47:13;;;;;;;3.90;3.50;;;9.10;99.90;;;;;;5082227;28;20518;-69
2020/12/23 02:49:41;;;;;;;6.20;4.50;;;9.10;99.90;;;;;;5084333;28;20197;-70
2020/12/23 02:52:08;;;;;;;5.25;3.75;;;9.10;99.90;;;;;;5084081;28;20232;-70
2020/12/23 02:54:36;;;;;;;6.63;4.10;;;9.10;99.90;;;;;;5084942;28;20198;-68
2020/12/23 02:57:03;;;;;;;5.10;4.15;;;9.10;99.90;;;;;;5084621;28;20217;-69
2020/12/23 02:59:30;;;;;;;6.50;3.85;;;9.10;99.90;;;;;;5099679;27;20216;-69
2020/12/23 03:01:58;;;;;;;5.10;4.50;;;9.10;99.90;;;;;;5082345;28;20205;-70
2020/12/23 03:04:24;;;;;;;5.15;3.88;;;9.10;99.90;;;;;;5082047;28;20213;-69
2020/12/23 03:06:51;;;;;;;5.35;4.32;;;9.10;99.90;;;;;;5086677;28;20197;-68
2020/12/23 03:09:17;;;;;;;6.18;3.83;;;9.10;99.90;;;;;;5083876;28;20214;-69
2020/12/23 03:11:44;;;;;;;4.50;3.58;;;9.00;99.90;;;;;;5081623;28;20589;-70
2020/12/23 03:14:11;;;;;;;4.95;4.05;;;9.00;99.90;;;;;;5082621;28;20204;-69
2020/12/23 03:16:38;;;;;;;4.85;3.85;;;9.10;99.90;;;;;;5100548;27;20208;-69
2020/12/23 03:19:04;;;;;;;5.65;4.53;;;9.10;99.90;;;;;;5080772;28;20206;-69
2020/12/23 03:21:31;;;;;;;4.22;3.67;;;9.00;99.90;;;;;;5088196;28;20230;-69
2020/12/23 03:23:58;;;;;;;5.45;4.10;;;9.10;99.90;;;;;;5084347;28;20200;-69
2020/12/23 03:26:25;;;;;;;6.22;4.63;;;9.00;99.90;;;;;;5087758;28;20599;-69
2020/12/23 03:28:52;;;;;;;8.00;4.60;;;9.10;99.90;;;;;;5081603;28;20197;-70
2020/12/23 03:31:19;;;;;;;7.60;4.35;;;9.00;99.90;;;;;;5082215;28;20205;-70
2020/12/23 03:33:45;;;;;;;4.80;3.80;;;9.00;99.90;;;;;;5080470;28;20204;-70
2020/12/23 03:36:12;;;;;;;5.85;4.18;;;9.00;99.90;;;;;;5080424;28;20226;-70
2020/12/23 03:38:39;;;;;;;7.95;5.03;;;9.10;99.90;;;;;;5087017;28;20230;-70
2020/12/23 03:41:06;;;;;;;10.25;5.93;;;9.10;99.90;;;;;;5081129;28;20212;-69
2020/12/23 03:43:32;;;;;;;11.18;6.95;;;9.00;99.90;;;;;;5087459;28;20212;-70
2020/12/23 03:46:00;;;;;;;9.15;5.78;;;8.90;99.90;;;;;;5083257;28;20210;-69
2020/12/23 03:48:26;;;;;;;8.88;6.30;;;8.80;99.90;;;;;;5080951;28;20212;-69
2020/12/23 03:50:53;;;;;;;7.50;6.32;;;9.00;99.90;;;;;;5086593;28;20205;-70
2020/12/23 03:53:20;;;;;;;8.45;6.15;;;8.90;99.90;;;;;;5087602;28;20233;-69
2020/12/23 03:55:47;;;;;;;8.20;5.88;;;8.90;99.90;;;;;;5085891;28;20562;-68
2020/12/23 03:58:14;;;;;;;8.35;5.53;;;8.80;99.90;;;;;;5082499;28;20245;-68
2020/12/23 04:00:40;;;;;;;5.38;3.83;;;8.80;99.90;;;;;;5081601;28;20271;-67
2020/12/23 04:03:07;;;;;;;8.25;4.25;;;8.80;99.90;;;;;;5079785;28;20216;-66
2020/12/23 04:05:38;;;;;;;6.50;4.47;;;8.70;99.90;;;;;;5088036;28;20255;-65
2020/12/23 04:08:05;;;;;;;7.28;6.20;;;8.70;99.90;;;;;;5081887;28;20204;-65
2020/12/23 04:10:32;;;;;;;8.30;4.80;;;8.70;99.90;;;;;;5083245;28;20208;-65
2020/12/23 04:12:59;;;;;;;6.32;5.05;;;8.70;99.90;;;;;;5086815;28;20264;-65
2020/12/23 04:15:26;;;;;;;10.63;5.95;;;8.70;99.90;;;;;;5084060;28;20199;-66
2020/12/23 04:17:54;;;;;;;12.00;6.57;;;8.70;99.90;;;;;;5080269;28;20231;-65
2020/12/23 04:20:22;;;;;;;8.85;5.32;;;8.70;99.90;;;;;;5082150;28;20254;-65
2020/12/23 04:22:48;;;;;;;10.93;6.22;;;8.70;99.90;;;;;;5080220;28;20207;-66
2020/12/23 04:25:15;;;;;;;9.75;5.45;;;8.70;99.90;;;;;;5082399;28;20278;-65
2020/12/23 04:27:41;;;;;;;11.90;5.97;;;8.70;99.90;;;;;;5094782;28;20205;-66
2020/12/23 04:30:08;;;;;;;6.85;4.55;;;8.70;99.90;;;;;;5079312;28;20219;-65
2020/12/23 04:32:36;;;;;;;7.75;5.68;;;8.70;99.90;;;;;;5081639;28;20225;-66
2020/12/23 04:35:05;;;;;;;7.20;6.05;;;8.70;99.90;;;;;;5085998;28;20511;-66
2020/12/23 04:37:34;;;;;;;6.75;4.13;;;8.70;99.90;;;;;;5081039;28;20209;-66
2020/12/23 04:40:03;;;;;;;6.65;5.15;;;8.70;99.90;;;;;;5081626;28;20206;-66
2020/12/23 04:42:31;;;;;;;9.38;5.40;;;8.70;99.90;;;;;;5082585;28;20214;-66
2020/12/23 04:44:57;;;;;;;6.43;4.75;;;8.70;99.90;;;;;;5082027;28;20225;-67
2020/12/23 04:47:25;;;;;;;8.15;5.50;;;8.70;99.90;;;;;;5085777;28;20248;-66
2020/12/23 04:49:56;;;;;;;8.65;4.90;;;8.60;99.90;;;;;;5083224;28;20239;-66
2020/12/23 04:52:31;;;;;;;9.50;6.47;;;8.60;99.90;;;;;;5084343;28;20270;-67
2020/12/23 04:54:59;;;;;;;4.78;4.25;;;8.60;99.90;;;;;;5080818;28;20209;-66
2020/12/23 04:57:28;;;;;;;6.97;5.40;;;8.70;99.90;;;;;;5081276;28;20682;-66
2020/12/23 04:59:55;;;;;;;5.00;4.50;;;8.60;99.90;;;;;;5082122;28;20398;-66
2020/12/23 05:02:26;;;;;;;5.40;4.10;;;8.60;99.90;;;;;;5081760;28;20246;-67
2020/12/23 05:04:52;;;;;;;8.23;5.13;;;8.60;99.90;;;;;;5083738;28;20201;-66
2020/12/23 05:07:20;;;;;;;4.95;3.55;;;8.60;99.90;;;;;;5083886;28;20205;-66
2020/12/23 05:09:48;;;;;;;7.45;4.93;;;8.60;99.90;;;;;;5088025;28;20240;-67
2020/12/23 05:12:17;;;;;;;5.57;4.43;;;8.60;99.90;;;;;;5087888;28;20386;-67
2020/12/23 05:14:45;;;;;;;7.72;4.85;;;8.60;99.90;;;;;;5091900;28;20279;-66
2020/12/23 05:17:11;;;;;;;7.28;4.70;;;8.60;99.90;;;;;;5088449;28;20267;-66
2020/12/23 05:19:39;;;;;;;5.60;3.78;;;8.60;99.90;;;;;;5086542;28;20195;-66
2020/12/23 05:22:07;;;;;;;7.07;4.65;;;8.60;99.90;;;;;;5083837;28;20450;-65
2020/12/23 05:24:37;;;;;;;6.45;5.05;;;8.60;99.90;;;;;;5082842;28;20203;-66
2020/12/23 05:27:06;;;;;;;7.85;5.75;;;8.60;99.90;;;;;;5087311;28;20247;-66
2020/12/23 05:29:33;;;;;;;7.50;5.97;;;8.60;99.90;;;;;;5082461;28;20210;-66
2020/12/23 05:32:04;;;;;;;9.52;7.38;;;8.60;99.90;;;;;;5085476;28;20583;-66
2020/12/23 05:34:35;;;;;;;6.72;5.82;;;8.60;99.90;;;;;;5085072;28;20231;-66
2020/12/23 05:37:03;;;;;;;7.20;6.20;;;8.60;99.90;;;;;;5083306;28;20569;-65
2020/12/23 05:39:33;;;;;;;15.63;7.60;;;8.50;99.90;;;;;;5083574;28;20208;-64
2020/12/23 05:42:00;;;;;;;13.00;8.30;;;8.40;99.90;;;;;;5084781;28;20208;-63
2020/12/23 05:44:28;;;;;;;16.25;8.30;;;8.50;99.90;;;;;;5083307;28;20203;-63
2020/12/23 05:46:55;;;;;;;9.43;6.75;;;8.40;99.90;;;;;;5087145;28;20204;-63
2020/12/23 05:49:24;;;;;;;6.05;5.10;;;8.40;99.90;;;;;;5082958;28;20207;-62
2020/12/23 05:51:52;;;;;;;12.48;7.43;;;8.30;99.90;;;;;;5103898;27;20241;-62
2020/12/23 05:54:22;;;;;;;14.35;6.32;;;8.30;99.90;;;;;;5084634;28;20274;-63
2020/12/23 05:56:53;;;;;;;8.82;5.72;;;8.30;99.90;;;;;;5090965;28;20447;-62
2020/12/23 05:59:20;;;;;;;7.55;6.03;;;8.20;99.90;;;;;;5085195;28;20275;-62
2020/12/23 06:01:49;;;;;;;8.60;6.55;;;8.20;99.90;;;;;;5085415;28;20208;-62
2020/12/23 06:04:17;;;;;;;8.52;4.75;;;8.20;99.90;;;;;;5083088;28;20436;-61
2020/12/23 06:07:05;;;;;;;7.18;4.10;;;8.20;99.90;;;;;;5082413;28;20290;-61
2020/12/23 06:09:57;;;;;;;5.55;3.60;;;8.10;99.90;;;;;;5086903;28;20202;-62
2020/12/23 06:12:30;;;;;;;6.00;4.35;;;8.10;99.90;;;;;;5048456;28;21174;-61
2020/12/23 06:14:58;;;;;;;5.95;3.95;;;8.10;99.90;;;;;;5087945;28;20203;-62
2020/12/23 06:17:30;;;;;;;6.43;4.10;;;8.10;99.90;;;;;;5088400;28;20240;-62
2020/12/23 06:19:57;;;;;;;4.97;3.72;;;8.10;99.90;;;;;;5082838;28;20236;-61
2020/12/23 06:22:26;;;;;;;6.75;4.50;;;8.00;99.90;;;;;;5089599;28;20257;-64
2020/12/23 06:24:53;;;;;;;4.22;3.72;;;8.00;99.90;;;;;;5081821;28;20246;-65
2020/12/23 06:27:20;;;;;;;4.65;4.20;;;8.00;99.90;;;;;;5090204;28;20307;-63
2020/12/23 06:29:48;;;;;;;4.10;3.45;;;8.00;99.90;;;;;;5086257;28;20405;-63
2020/12/23 06:32:22;;;;;;;6.70;4.55;;;8.10;99.90;;;;;;5100370;28;20242;-64
2020/12/23 06:34:59;;;;;;;4.18;3.42;;;8.10;99.90;;;;;;5083580;28;20211;-64
2020/12/23 06:37:31;;;;;;;3.63;2.97;;;8.10;99.90;;;;;;5084303;28;20225;-64
2020/12/23 06:39:58;;;;;;;3.88;3.08;;;8.00;99.90;;;;;;5086615;28;20200;-65
2020/12/23 06:42:27;;;;;;;4.53;3.47;;;8.00;99.90;;;;;;5084086;28;20214;-64
2020/12/23 06:45:00;;;;;;;3.90;2.65;;;8.10;99.90;;;;;;5091504;28;20201;-65
2020/12/23 06:47:29;;;;;;;5.07;3.85;;;8.00;99.90;;;;;;5087660;28;20209;-64
2020/12/23 06:50:13;;;;;;;3.90;3.30;;;8.10;99.90;;;;;;5083042;28;20211;-65
2020/12/23 06:52:42;;;;;;;7.40;3.75;;;8.10;99.90;;;;;;5082753;28;20215;-65
2020/12/23 06:55:16;;;;;;;3.75;3.00;;;8.10;99.90;;;;;;5084099;28;20203;-65
2020/12/23 06:57:44;;;;;;;6.28;3.85;;;8.10;99.90;;;;;;5080473;28;20440;-65
2020/12/23 07:00:20;;;;;;;4.43;3.20;;;8.10;99.90;;;;;;5084407;28;20203;-65
2020/12/23 07:02:49;;;;;;;7.63;4.47;;;8.00;99.90;;;;;;5087342;28;20540;-65
2020/12/23 07:05:37;;;;;;;3.70;3.30;;;8.00;99.90;;;;;;5083546;28;20404;-65
2020/12/23 07:08:06;;;;;;;5.97;4.07;;;7.90;99.90;;;;;;5083882;28;20212;-65
2020/12/23 07:10:50;;;;;;;4.22;3.70;;;7.90;99.90;;;;;;5083167;28;20362;-65
2020/12/23 07:13:18;;;;;;;4.30;3.83;;;7.90;99.90;;;;;;5084792;28;20245;-66
2020/12/23 07:15:52;;;;;;;5.07;4.50;;;7.90;99.90;;;;;;5083026;28;20490;-65
2020/12/23 07:18:27;;;;;;;6.40;4.88;;;7.90;99.90;;;;;;5087044;28;20447;-65
2020/12/23 07:21:07;;;;;;;6.60;4.82;;;7.90;99.90;;;;;;5086783;28;20239;-64
2020/12/23 07:23:34;;;;;;;4.97;3.92;;;7.90;99.90;;;;;;5091875;28;20240;-65
2020/12/23 07:26:06;;;;;;;5.82;3.92;;;7.90;99.90;;;;;;5080531;28;20550;-64
2020/12/23 07:28:38;;;;;;;11.70;5.82;;;7.90;99.90;;;;;;5082033;28;20218;-65
2020/12/23 07:31:06;;;;;;;6.55;5.18;;;7.90;99.90;;;;;;5081489;28;20207;-65
2020/12/23 07:33:37;;;;;;;7.30;5.10;;;7.90;99.90;;;;;;5087488;28;20287;-64
2020/12/23 07:36:04;;;;;;;12.57;6.38;;;7.90;99.90;;;;;;5090742;28;20227;-65
2020/12/23 07:38:40;;;;;;;6.40;5.03;;;7.90;99.90;;;;;;5095562;28;20271;-66
2020/12/23 07:41:11;;;;;;;5.13;4.57;;;7.90;99.90;;;;;;5082412;28;20283;-65
2020/12/23 07:43:38;;;;;;;7.68;6.25;;;8.00;99.90;;;;;;5085230;28;20221;-65
2020/12/23 07:46:05;;;;;;;6.32;5.45;;;7.90;99.90;;;;;;5080364;28;20453;-65
2020/12/23 07:48:33;;;;;;;6.07;4.75;;;7.90;99.90;;;;;;5082329;28;20203;-66
2020/12/23 07:51:00;;;;;;;4.88;3.58;;;8.00;99.90;;;;;;5085053;28;20222;-65
2020/12/23 07:53:29;;;;;;;10.88;6.30;;;8.00;99.90;;;;;;5082748;28;20215;-66
2020/12/23 07:56:01;;;;;;;4.68;4.20;;;8.00;99.90;;;;;;5084582;28;20203;-66
2020/12/23 07:58:29;;;;;;;5.65;4.15;;;8.00;99.90;;;;;;5085372;28;20195;-66
2020/12/23 08:00:56;;;;;;;9.25;5.65;;;8.00;99.90;;;;;;5087048;28;20427;-66
2020/12/23 08:03:27;;;;;;;4.38;3.92;;;7.90;99.90;;;;;;5086063;28;20198;-65
2020/12/23 08:06:06;;;;;;;8.70;6.32;;;8.00;99.90;;;;;;5085952;28;20211;-66
2020/12/23 08:08:34;;;;;;;8.13;5.57;;;8.10;99.90;;;;;;5082724;28;20199;-66
2020/12/23 08:11:30;;;;;;;5.97;4.65;;;8.10;99.90;;;;;;5097203;28;20514;-67
2020/12/23 08:14:01;;;;;;;6.47;5.82;;;8.10;99.90;;;;;;5082906;28;20559;-66
2020/12/23 08:16:27;;;;;;;7.60;5.80;;;8.00;99.90;;;;;;5082148;28;20198;-66
2020/12/23 08:18:54;;;;;;;8.50;5.63;;;8.10;99.90;;;;;;5080305;28;20505;-66
2020/12/23 08:21:20;;;;;;;5.50;5.05;;;8.20;99.90;;;;;;5086144;28;20379;-66
2020/12/23 08:23:52;;;;;;;5.95;5.13;;;8.10;99.90;;;;;;5101790;27;20207;-67
2020/12/23 08:26:19;;;;;;;5.88;5.05;;;8.10;99.90;;;;;;5085285;28;20232;-66
2020/12/23 08:28:47;;;;;;;5.75;4.68;;;8.10;99.90;;;;;;5083929;28;20202;-67
2020/12/23 08:31:14;;;;;;;11.27;5.18;;;8.20;99.90;;;;;;5102644;28;20209;-67
2020/12/23 08:33:41;;;;;;;5.47;4.75;;;8.20;99.90;;;;;;5079295;28;20235;-66
2020/12/23 08:36:07;;;;;;;4.55;3.50;;;8.20;99.90;;;;;;5085239;28;20232;-67
2020/12/23 08:38:41;;;;;;;6.38;5.25;;;8.20;99.90;;;;;;5083029;28;20379;-66
2020/12/23 08:41:14;;;;;;;5.72;5.03;;;8.20;99.90;;;;;;5086622;28;20198;-68
2020/12/23 08:43:46;;;;;;;7.40;4.57;;;8.20;99.90;;;;;;5082117;28;20516;-67
2020/12/23 08:46:26;;;;;;;5.75;4.93;;;8.30;99.90;;;;;;5081416;28;20285;-67
2020/12/23 08:48:54;;;;;;;6.43;4.28;;;8.30;99.90;;;;;;5083417;28;20220;-67
2020/12/23 08:51:23;;;;;;;9.77;5.40;;;8.20;99.90;;;;;;5080474;28;20208;-69
2020/12/23 08:53:54;;;;;;;4.72;4.28;;;8.20;99.90;;;;;;5081548;28;20457;-68
2020/12/23 08:56:27;;;;;;;8.98;3.95;;;8.20;99.90;;;;;;5081540;28;20203;-68
2020/12/23 08:59:05;;;;;;;7.20;4.70;;;8.30;99.90;;;;;;5082508;28;20221;-69
2020/12/23 09:01:34;;;;;;;5.28;4.75;;;8.30;99.90;;;;;;5084968;28;20203;-68
2020/12/23 09:04:07;;;;;;;5.00;4.50;;;8.30;99.90;;;;;;5080586;28;20211;-68
2020/12/23 09:06:40;;;;;;;8.48;4.45;;;8.30;99.90;;;;;;5085189;28;20450;-68
2020/12/23 09:09:13;;;;;;;6.93;4.90;;;8.40;99.90;;;;;;5079289;28;20210;-68
2020/12/23 09:11:51;;;;;;;6.43;5.03;;;8.40;99.90;;;;;;5083457;28;20195;-68
2020/12/23 09:14:35;;;;;;;4.70;4.25;;;8.40;99.90;;;;;;5097138;28;20209;-69
2020/12/23 09:17:08;;;;;;;6.45;4.53;;;8.40;99.90;;;;;;5095330;28;20397;-69
2020/12/23 09:20:02;;;;;;;6.93;4.88;;;8.50;99.90;;;;;;5092051;28;20384;-70
2020/12/23 09:22:35;;;;;;;6.90;5.38;;;8.50;99.90;;;;;;5095222;28;20281;-71
2020/12/23 09:25:27;;;;;;;8.55;5.80;;;8.60;99.90;;;;;;5093236;28;20490;-69
2020/12/23 09:27:55;;;;;;;6.82;6.10;;;8.60;99.90;;;;;;5092755;28;20509;-70
2020/12/23 09:30:32;;;;;;;9.40;7.40;;;8.60;99.90;;;;;;5093054;28;20423;-70
2020/12/23 09:32:58;;;;;;;16.77;9.45;;;8.80;99.90;;;;;;5096149;28;20237;-70
2020/12/23 09:35:27;;;;;;;18.92;9.77;;;8.80;99.90;;;;;;5090976;28;20236;-70
2020/12/23 09:38:06;;;;;;;11.60;8.57;;;8.90;99.90;;;;;;5089551;28;20390;-71
2020/12/23 09:40:35;;;;;;;16.15;8.93;;;8.90;99.90;;;;;;5097461;28;20525;-71
2020/12/23 09:43:07;;;;;;;12.93;8.60;;;8.90;99.90;;;;;;5096540;28;20212;-72
2020/12/23 09:45:34;;;;;;;8.27;7.30;;;9.00;99.90;;;;;;5096633;28;20307;-71
2020/12/23 09:48:01;;;;;;;11.90;7.20;;;9.00;99.90;;;;;;5092617;28;20220;-72
2020/12/23 09:50:28;;;;;;;10.65;8.10;;;9.00;99.90;;;;;;5091086;28;20212;-73
2020/12/23 09:52:55;;;;;;;14.43;8.50;;;9.10;99.90;;;;;;5091630;28;20352;-72
2020/12/23 09:55:24;;;;;;;14.38;8.05;;;9.20;99.90;;;;;;5096392;28;20404;-73
2020/12/23 09:57:56;;;;;;;12.15;8.32;;;9.20;99.90;;;;;;5096726;28;20204;-73
2020/12/23 10:00:22;;;;;;;15.35;10.32;;;9.10;99.90;;;;;;5102681;28;20271;-72
2020/12/23 10:02:49;;;;;;;10.40;7.88;;;9.20;99.90;;;;;;5098637;28;20231;-72
2020/12/23 10:05:16;;;;;;;10.43;7.85;;;9.20;99.90;;;;;;5088450;28;20450;-72
2020/12/23 10:07:42;;;;;;;10.52;8.07;;;9.20;99.90;;;;;;5100401;28;20209;-72
2020/12/23 10:10:09;;;;;;;17.80;10.32;;;9.30;99.90;;;;;;5109742;28;20427;-72
2020/12/23 10:12:36;;;;;;;13.65;7.47;;;9.70;99.90;;;;;;5097280;28;20247;-72
2020/12/23 10:15:06;;;;;;;10.07;8.02;;;9.20;99.90;;;;;;5119978;28;20404;-72
2020/12/23 10:17:35;;;;;;;10.13;9.02;;;9.40;99.90;;;;;;5101535;28;20212;-73
2020/12/23 10:20:03;;;;;;;12.05;8.52;;;9.40;99.90;;;;;;5091814;28;20230;-72
2020/12/23 10:22:30;;;;;;;7.88;7.07;;;9.30;99.90;;;;;;5108450;28;20208;-73
2020/12/23 10:24:57;;;;;;;8.15;7.22;;;9.30;99.90;;;;;;5105212;28;20226;-73
2020/12/23 10:27:24;;;;;;;9.07;6.97;;;9.30;99.90;;;;;;5099670;28;20234;-73
2020/12/23 10:29:51;;;;;;;8.85;7.68;;;9.50;99.90;;;;;;5095346;28;20544;-73
2020/12/23 10:32:19;;;;;;;11.73;8.45;;;9.50;99.90;;;;;;5097112;28;20232;-73
2020/12/23 10:34:47;;;;;;;6.72;6.03;;;9.60;99.90;;;;;;5094029;28;20216;-72
2020/12/23 10:37:15;;;;;;;9.23;7.38;;;9.70;99.90;;;;;;5096977;28;20295;-74
2020/12/23 10:39:56;;;;;;;8.88;7.97;;;9.70;99.90;;;;;;5095265;28;20215;-72
2020/12/23 10:42:26;;;;;;;9.60;6.38;;;9.70;99.90;;;;;;5097742;28;20213;-72
2020/12/23 10:44:53;;;;;;;6.53;5.78;;;9.50;99.90;;;;;;5097373;28;20241;-71
2020/12/23 10:47:29;;;;;;;6.75;5.40;;;9.40;99.90;;;;;;5086118;28;20196;-72
2020/12/23 10:49:56;;;;;;;6.35;3.72;;;9.60;99.90;;;;;;5086116;28;20206;-73
2020/12/23 10:52:22;;;;;;;6.35;4.72;;;9.50;99.90;;;;;;5083938;28;20474;-72
2020/12/23 10:54:49;;;;;;;6.78;5.10;;;9.60;99.90;;;;;;5088298;28;20212;-73
2020/12/23 10:57:15;;;;;;;7.93;5.60;;;9.90;99.90;;;;;;5082725;28;20236;-72
2020/12/23 10:59:42;;;;;;;6.72;5.88;;;10.00;99.90;;;;;;5084673;28;20194;-72
2020/12/23 11:02:08;;;;;;;6.05;5.20;;;10.20;99.90;;;;;;5087990;28;20272;-71
2020/12/23 11:04:35;;;;;;;7.53;5.90;;;10.00;99.90;;;;;;5085513;28;20242;-72
2020/12/23 11:07:02;;;;;;;7.60;6.38;;;10.10;99.90;;;;;;5090566;28;20202;-71
2020/12/23 11:09:28;;;;;;;11.48;7.47;;;10.10;99.90;;;;;;5086672;28;20379;-74
2020/12/23 11:11:55;;;;;;;12.90;8.20;;;10.00;99.90;;;;;;5095314;28;20215;-72
2020/12/23 11:14:22;;;;;;;11.07;7.45;;;10.10;99.90;;;;;;5107619;28;20244;-70
2020/12/23 11:16:49;;;;;;;7.63;6.82;;;10.20;99.90;;;;;;5099223;28;20206;-70
2020/12/23 11:19:20;;;;;;;9.85;7.38;;;10.20;99.90;;;;;;5092964;28;20213;-73
2020/12/23 11:21:47;;;;;;;10.32;6.15;;;10.00;99.90;;;;;;5105883;28;20242;-72
2020/12/23 11:24:14;;;;;;;10.57;7.00;;;9.70;99.90;;;;;;5101629;28;20247;-71
2020/12/23 11:26:41;;;;;;;19.10;9.73;;;9.70;99.90;;;;;;5107384;28;20438;-71
2020/12/23 11:29:07;;;;;;;16.50;9.35;;;9.80;99.90;;;;;;5097524;28;20498;-71
2020/12/23 11:31:35;;;;;;;11.10;8.35;;;9.80;99.90;;;;;;5100770;28;20496;-72
2020/12/23 11:34:02;;;;;;;13.90;8.27;;;9.80;99.90;;;;;;5103506;28;20528;-70
2020/12/23 11:36:30;;;;;;;10.73;7.30;;;9.90;99.90;;;;;;5095433;28;20224;-70
2020/12/23 11:39:00;;;;;;;14.20;8.73;;;10.00;99.90;;;;;;5107479;28;20208;-70
2020/12/23 11:41:27;;;;;;;14.35;9.13;;;10.00;99.90;;;;;;5101594;28;20196;-70
2020/12/23 11:43:55;;;;;;;14.00;9.52;;;10.10;99.90;;;;;;5084664;28;20216;-71
2020/12/23 11:46:21;;;;;;;14.82;9.52;;;10.10;99.90;;;;;;5085724;28;20210;-71
2020/12/23 11:48:48;;;;;;;14.77;10.07;;;10.30;99.90;;;;;;5100112;28;20213;-71
2020/12/23 11:51:14;;;;;;;14.63;10.90;;;10.40;99.90;;;;;;5086859;28;20210;-72
2020/12/23 11:53:43;;;;;;;13.20;8.38;;;10.30;99.90;;;;;;5084690;28;20393;-72
2020/12/23 11:56:10;;;;;;;13.27;8.57;;;10.30;99.90;;;;;;5095546;28;20307;-72
2020/12/23 11:58:37;;;;;;;14.68;8.77;;;10.20;99.90;;;;;;5083292;28;20205;-71
2020/12/23 12:01:03;;;;;;;15.73;8.50;;;9.90;99.90;;;;;;5090538;28;20207;-72
2020/12/23 12:03:30;;;;;;;14.52;8.65;;;9.70;99.90;;;;;;5109431;28;20280;-71
2020/12/23 12:05:57;;;;;;;13.45;9.02;;;9.80;99.90;;;;;;5087243;28;20419;-70
2020/12/23 12:08:23;;;;;;;16.25;9.02;;;9.60;99.90;;;;;;5084581;28;20397;-71
2020/12/23 12:10:55;;;;;;;13.07;7.97;;;9.70;99.90;;;;;;5086426;28;20218;-71
2020/12/23 12:13:22;;;;;;;14.23;9.82;;;9.70;99.90;;;;;;5086343;28;20233;-70
2020/12/23 12:15:49;;;;;;;18.23;9.85;;;9.80;99.90;;;;;;5097731;28;20204;-69
2020/12/23 12:18:16;;;;;;;17.00;10.63;;;9.90;99.90;;;;;;5088483;28;20209;-69
2020/12/23 12:20:43;;;;;;;14.55;9.15;;;9.90;99.90;;;;;;5097881;28;20201;-70
2020/12/23 12:23:09;;;;;;;16.10;9.20;;;9.80;99.90;;;;;;5100281;28;20491;-70
2020/12/23 12:25:36;;;;;;;17.52;10.40;;;9.80;99.90;;;;;;5077947;28;20563;-70
2020/12/23 12:28:03;;;;;;;15.82;8.80;;;9.90;99.90;;;;;;5079518;28;20210;-68
2020/12/23 12:30:30;;;;;;;19.02;10.40;;;10.00;99.90;;;;;;5093310;28;20205;-70
2020/12/23 12:32:57;;;;;;;17.80;10.73;;;10.00;99.90;;;;;;5079027;28;20228;-70
2020/12/23 12:35:24;;;;;;;15.75;9.75;;;10.20;99.90;;;;;;5080285;28;20226;-69
2020/12/23 12:37:51;;;;;;;17.73;10.00;;;10.10;99.90;;;;;;5093876;28;20250;-71
2020/12/23 12:40:17;;;;;;;18.88;10.07;;;10.20;99.90;;;;;;5110652;28;20476;-71
2020/12/23 12:42:44;;;;;;;17.55;12.00;;;10.20;99.90;;;;;;5092455;28;20218;-70
2020/12/23 12:45:10;;;;;;;13.60;9.55;;;10.10;99.90;;;;;;5089685;28;20223;-71
2020/12/23 12:47:37;;;;;;;16.88;11.15;;;9.90;99.90;;;;;;5090391;28;20223;-71
2020/12/23 12:50:04;;;;;;;19.13;12.18;;;9.90;99.90;;;;;;5081683;28;20221;-71
2020/12/23 12:52:31;;;;;;;14.95;10.27;;;9.90;99.90;;;;;;5079387;28;20239;-70
2020/12/23 12:54:58;;;;;;;16.52;8.85;;;10.00;99.90;;;;;;5095181;28;20211;-70
2020/12/23 12:57:25;;;;;;;16.52;9.60;;;9.80;99.90;;;;;;5087400;28;20197;-70
2020/12/23 12:59:51;;;;;;;16.13;10.90;;;9.80;99.90;;;;;;5087283;28;20236;-72
2020/12/23 13:02:18;;;;;;;19.17;9.20;;;9.90;99.90;;;;;;5092822;28;20211;-70